Time,TemperatureF,DewpointF,PressureIn,WindDirection,WindDirectionDegrees,WindSpeedMPH,WindSpeedGustMPH,Humidity,HourlyPrecipIn,Conditions,Clouds,dailyrainin,SoftwareType,DateUTC
2013-02-03 00:02:00,39.9,34.6,29.44,NW,315,0.7,1.1,81,0.00,-RA,SKC,0.43,WeatherDisplay:10.37,2013-02-02 23:02:00,
2013-02-03 00:07:00,39.9,34.6,29.45,NW,315,1.1,1.1,81,0.00,-RA,SKC,0.43,WeatherDisplay:10.37,2013-02-02 23:07:00,
2013-02-03 00:12:00,39.9,34.6,29.45,NW,315,1.1,1.1,81,0.00,-RA,SKC,0.43,WeatherDisplay:10.37,2013-02-02 23:12:00,
2013-02-03 00:17:00,39.9,34.6,29.44,NW,315,1.6,2.9,81,0.00,BKN,SKC,0.43,WeatherDisplay:10.37,2013-02-02 23:17:00,
2013-02-03 00:22:00,40.1,34.7,29.44,WNW,292,2.2,3.5,81,0.00,BKN,SKC,0.43,WeatherDisplay:10.37,2013-02-02 23:22:00,
2013-02-03 00:27:00,40.1,34.4,29.45,NW,315,0.9,2.3,80,0.00,BKN,SKC,0.43,WeatherDisplay:10.37,2013-02-02 23:27:00,
2013-02-03 00:32:00,40.3,34.6,29.46,NW,315,2.0,2.5,80,0.00,BKN,SKC,0.43,WeatherDisplay:10.37,2013-02-02 23:32:00,
2013-02-03 00:37:00,40.6,34.3,29.46,WNW,292,3.0,5.8,78,0.00,BKN,SKC,0.43,WeatherDisplay:10.37,2013-02-02 23:37:00,
2013-02-03 00:42:00,40.8,34.2,29.46,West,270,4.0,4.6,77,0.00,BKN,SKC,0.43,WeatherDisplay:10.37,2013-02-02 23:42:00,
2013-02-03 00:47:00,40.8,33.8,29.46,North,0,2.2,4.6,76,0.00,OVC,SKC,0.43,WeatherDisplay:10.37,2013-02-02 23:47:00,
2013-02-03 00:52:00,40.8,33.8,29.46,North,0,5.1,5.1,76,0.00,OVC,SKC,0.43,WeatherDisplay:10.37,2013-02-02 23:52:00,
2013-02-03 00:57:00,41.0,33.7,29.47,NNW,338,1.3,1.3,75,0.00,OVC,SKC,0.43,WeatherDisplay:10.37,2013-02-02 23:57:00,
2013-02-03 01:02:00,41.0,33.7,29.47,NNW,338,0.9,1.1,75,0.00,OVC,SKC,0.43,WeatherDisplay:10.37,2013-02-03 00:02:00,
2013-02-03 01:07:00,40.8,33.5,29.47,WNW,292,2.7,4.6,75,0.00,OVC,SKC,0.43,WeatherDisplay:10.37,2013-02-03 00:07:00,
2013-02-03 01:12:00,40.8,33.5,29.47,NNE,22,2.7,6.9,75,0.00,OVC,SKC,0.43,WeatherDisplay:10.37,2013-02-03 00:12:00,
2013-02-03 01:17:00,40.8,33.5,29.47,WNW,292,3.8,8.1,75,0.00,-RA,SKC,0.43,WeatherDisplay:10.37,2013-02-03 00:17:00,
2013-02-03 01:22:00,40.8,33.5,29.48,WNW,292,6.3,8.1,75,0.00,-RA,SKC,0.43,WeatherDisplay:10.37,2013-02-03 00:22:00,
2013-02-03 01:27:00,40.8,33.5,29.47,NNE,22,2.2,2.3,75,0.00,-RA,SKC,0.43,WeatherDisplay:10.37,2013-02-03 00:27:00,
2013-02-03 01:32:00,40.6,33.3,29.47,NW,315,8.1,8.1,75,0.00,-RA,SKC,0.43,WeatherDisplay:10.37,2013-02-03 00:32:00,
2013-02-03 01:37:00,40.6,33.3,29.47,North,0,7.4,8.1,75,0.00,-RA,SKC,0.43,WeatherDisplay:10.37,2013-02-03 00:37:00,
2013-02-03 01:42:00,39.9,33.3,29.48,NW,315,6.3,7.6,77,0.00,-RA,SKC,0.43,WeatherDisplay:10.37,2013-02-03 00:42:00,
2013-02-03 01:47:00,39.6,33.3,29.48,NNW,338,3.8,3.8,78,0.00,-RA,SKC,0.43,WeatherDisplay:10.37,2013-02-03 00:47:00,
2013-02-03 01:52:00,39.6,33.6,29.49,WNW,292,6.7,9.2,79,0.00,-RA,SKC,0.43,WeatherDisplay:10.37,2013-02-03 00:52:00,
2013-02-03 01:57:00,39.6,33.6,29.49,NNW,338,5.9,11.5,79,0.00,-RA,SKC,0.43,WeatherDisplay:10.37,2013-02-03 00:57:00,
2013-02-03 02:02:00,39.6,33.6,29.49,NW,315,6.5,6.9,79,0.00,-RA,SKC,0.43,WeatherDisplay:10.37,2013-02-03 01:02:00,
2013-02-03 02:07:00,39.6,33.3,29.49,NW,315,4.7,4.7,78,0.00,-RA,SKC,0.43,WeatherDisplay:10.37,2013-02-03 01:07:00,
2013-02-03 02:12:00,39.6,33.3,29.49,WNW,292,6.5,6.9,78,0.00,-RA,SKC,0.43,WeatherDisplay:10.37,2013-02-03 01:12:00,
2013-02-03 02:17:00,39.7,33.4,29.50,NNW,338,4.4,10.4,78,0.00,-RA,SKC,0.43,WeatherDisplay:10.37,2013-02-03 01:17:00,
2013-02-03 02:22:00,39.6,33.3,29.49,NNE,22,4.0,4.0,78,0.00,-RA,SKC,0.43,WeatherDisplay:10.37,2013-02-03 01:22:00,
2013-02-03 02:27:00,39.4,33.4,29.50,NNW,338,4.6,10.4,79,0.00,-RA,SKC,0.43,WeatherDisplay:10.37,2013-02-03 01:27:00,
2013-02-03 02:32:00,39.4,33.4,29.50,NNW,338,6.7,6.9,79,0.00,-RA,SKC,0.43,WeatherDisplay:10.37,2013-02-03 01:32:00,
2013-02-03 02:37:00,39.0,33.4,29.50,WNW,292,6.8,6.9,80,0.00,-RA,SKC,0.43,WeatherDisplay:10.37,2013-02-03 01:37:00,
2013-02-03 02:42:00,39.0,33.4,29.50,NNW,338,4.6,6.9,80,0.00,-RA,SKC,0.43,WeatherDisplay:10.37,2013-02-03 01:42:00,
2013-02-03 02:47:00,39.0,33.7,29.51,West,270,3.8,3.8,81,0.00,-RA,SKC,0.43,WeatherDisplay:10.37,2013-02-03 01:47:00,
2013-02-03 02:52:00,38.5,33.5,29.51,WNW,292,7.1,10.4,82,0.00,-RA,SKC,0.43,WeatherDisplay:10.37,2013-02-03 01:52:00,
2013-02-03 02:57:00,38.3,33.6,29.51,WNW,292,4.9,4.9,83,0.00,-RA,SKC,0.43,WeatherDisplay:10.37,2013-02-03 01:57:00,
2013-02-03 03:02:00,38.3,33.6,29.51,NW,315,6.9,6.9,83,0.00,-RA,SKC,0.43,WeatherDisplay:10.37,2013-02-03 02:02:00,
2013-02-03 03:07:00,38.1,33.4,29.51,NW,315,4.5,4.6,83,0.00,-RA,SKC,0.43,WeatherDisplay:10.37,2013-02-03 02:07:00,
2013-02-03 03:12:00,38.1,33.4,29.51,North,0,5.8,5.8,83,0.00,-RA,SKC,0.43,WeatherDisplay:10.37,2013-02-03 02:12:00,
2013-02-03 03:17:00,37.9,33.5,29.52,North,0,4.5,4.6,84,0.00,-RA,SKC,0.43,WeatherDisplay:10.37,2013-02-03 02:17:00,
2013-02-03 03:22:00,37.9,33.5,29.51,NNE,22,6.9,11.5,84,0.00,-RA,SKC,0.45,WeatherDisplay:10.37,2013-02-03 02:22:00,
2013-02-03 03:27:00,37.9,33.5,29.52,NNW,338,4.0,4.0,84,0.02,-RA,SKC,0.45,WeatherDisplay:10.37,2013-02-03 02:27:00,
2013-02-03 03:32:00,37.9,33.5,29.52,NNW,338,4.0,4.0,84,0.02,-RA,SKC,0.45,WeatherDisplay:10.37,2013-02-03 02:32:00,
2013-02-03 03:37:00,37.8,33.7,29.51,NNW,338,6.3,6.3,85,0.02,-RA,SKC,0.45,WeatherDisplay:10.37,2013-02-03 02:37:00,
2013-02-03 03:42:00,37.8,33.7,29.51,NNW,338,3.8,3.8,85,0.02,-RA,SKC,0.45,WeatherDisplay:10.37,2013-02-03 02:42:00,
2013-02-03 03:47:00,37.6,33.8,29.52,North,0,1.8,2.3,86,0.02,-RA,SKC,0.45,WeatherDisplay:10.37,2013-02-03 02:47:00,
2013-02-03 03:52:00,37.6,33.8,29.52,NW,315,6.7,6.9,86,0.02,-RA,SKC,0.45,WeatherDisplay:10.37,2013-02-03 02:52:00,
2013-02-03 03:57:00,37.6,33.8,29.51,NW,315,5.4,5.8,86,0.02,-RA,SKC,0.45,WeatherDisplay:10.37,2013-02-03 02:57:00,
2013-02-03 04:02:00,37.6,33.8,29.51,NNW,338,8.9,9.2,86,0.02,-RA,SKC,0.45,WeatherDisplay:10.37,2013-02-03 03:02:00,
2013-02-03 04:07:00,37.6,33.8,29.52,NNW,338,3.1,3.5,86,0.02,-RA,SKC,0.45,WeatherDisplay:10.37,2013-02-03 03:07:00,
2013-02-03 04:12:00,37.6,33.8,29.52,WNW,292,3.4,3.6,86,0.02,-RA,SKC,0.45,WeatherDisplay:10.37,2013-02-03 03:12:00,
2013-02-03 04:17:00,37.6,33.8,29.52,NW,315,10.7,10.7,86,0.02,-RA,SKC,0.45,WeatherDisplay:10.37,2013-02-03 03:17:00,
2013-02-03 04:22:00,37.6,33.8,29.53,NNW,338,3.1,3.5,86,0.02,-RA,SKC,0.45,WeatherDisplay:10.37,2013-02-03 03:22:00,
2013-02-03 04:27:00,37.6,33.8,29.53,NW,315,10.3,10.4,86,0.00,-RA,SKC,0.45,WeatherDisplay:10.37,2013-02-03 03:27:00,
2013-02-03 04:32:00,37.8,33.9,29.53,NW,315,8.9,9.2,86,0.00,-RA,SKC,0.45,WeatherDisplay:10.37,2013-02-03 03:32:00,
2013-02-03 04:37:00,37.8,33.7,29.53,WNW,292,5.8,8.1,85,0.00,-RA,SKC,0.45,WeatherDisplay:10.37,2013-02-03 03:37:00,
2013-02-03 04:42:00,37.8,33.7,29.53,NW,315,9.6,11.5,85,0.00,-RA,SKC,0.45,WeatherDisplay:10.37,2013-02-03 03:42:00,
2013-02-03 04:47:00,37.8,33.7,29.53,NW,315,4.2,4.6,85,0.00,-RA,SKC,0.45,WeatherDisplay:10.37,2013-02-03 03:47:00,
2013-02-03 04:52:00,37.8,33.7,29.54,WNW,292,5.5,9.2,85,0.00,-RA,SKC,0.45,WeatherDisplay:10.37,2013-02-03 03:52:00,
2013-02-03 04:57:00,37.8,33.7,29.54,NW,315,3.1,3.5,85,0.00,-RA,SKC,0.45,WeatherDisplay:10.37,2013-02-03 03:57:00,
2013-02-03 05:02:00,37.9,33.5,29.54,North,0,3.0,5.8,84,0.00,-RA,SKC,0.45,WeatherDisplay:10.37,2013-02-03 04:02:00,
2013-02-03 05:07:00,37.9,33.5,29.54,North,0,3.8,5.1,84,0.00,-RA,SKC,0.45,WeatherDisplay:10.37,2013-02-03 04:07:00,
2013-02-03 05:12:00,37.9,33.5,29.55,NNW,338,9.7,11.5,84,0.00,-RA,SKC,0.45,WeatherDisplay:10.37,2013-02-03 04:12:00,
2013-02-03 05:17:00,37.9,33.5,29.55,NW,315,6.9,6.9,84,0.00,-RA,SKC,0.45,WeatherDisplay:10.37,2013-02-03 04:17:00,
2013-02-03 05:22:00,37.9,33.5,29.55,NNE,22,3.1,3.5,84,0.00,-RA,SKC,0.45,WeatherDisplay:10.37,2013-02-03 04:22:00,
2013-02-03 05:27:00,37.9,33.5,29.55,North,0,3.1,3.5,84,0.00,-RA,SKC,0.45,WeatherDisplay:10.37,2013-02-03 04:27:00,
2013-02-03 05:32:00,37.9,33.5,29.55,NW,315,4.0,4.0,84,0.00,-RA,SKC,0.45,WeatherDisplay:10.37,2013-02-03 04:32:00,
2013-02-03 05:37:00,37.9,33.5,29.55,North,0,6.5,10.4,84,0.00,-RA,SKC,0.45,WeatherDisplay:10.37,2013-02-03 04:37:00,
2013-02-03 05:42:00,37.9,33.5,29.55,North,0,3.5,4.9,84,0.00,-RA,SKC,0.45,WeatherDisplay:10.37,2013-02-03 04:42:00,
2013-02-03 05:47:00,37.9,33.2,29.56,NW,315,5.6,5.8,83,0.00,-RA,SKC,0.45,WeatherDisplay:10.37,2013-02-03 04:47:00,
2013-02-03 05:52:00,37.9,33.2,29.56,North,0,4.9,9.2,83,0.00,-RA,SKC,0.45,WeatherDisplay:10.37,2013-02-03 04:52:00,
2013-02-03 05:57:00,38.1,33.4,29.56,NNW,338,9.6,9.6,83,0.00,-RA,SKC,0.45,WeatherDisplay:10.37,2013-02-03 04:57:00,
2013-02-03 06:00:00,38.1,33.4,29.56,North,0,3.3,9.2,83,0.00,-RA,SKC,0.45,WeatherDisplay:10.37,2013-02-03 05:00:00,
2013-02-03 06:01:00,38.1,33.4,29.56,North,0,3.4,9.2,83,0.00,-RA,SKC,0.45,WeatherDisplay:10.37,2013-02-03 05:01:00,
2013-02-03 06:07:00,37.9,33.2,29.56,NNW,338,6.9,6.9,83,0.00,-RA,SKC,0.45,WeatherDisplay:10.37,2013-02-03 05:07:00,
2013-02-03 06:12:00,38.1,33.1,29.56,NNW,338,6.0,6.9,82,0.00,-RA,SKC,0.45,WeatherDisplay:10.37,2013-02-03 05:12:00,
2013-02-03 06:17:00,38.1,33.1,29.57,NNW,338,8.5,9.2,82,0.00,-RA,SKC,0.45,WeatherDisplay:10.37,2013-02-03 05:17:00,
2013-02-03 06:22:00,38.1,33.1,29.57,NNW,338,3.1,3.5,82,0.00,-RA,SKC,0.45,WeatherDisplay:10.37,2013-02-03 05:22:00,
2013-02-03 06:27:00,38.1,33.1,29.57,SSW,202,6.7,6.9,82,0.00,-RA,SKC,0.45,WeatherDisplay:10.37,2013-02-03 05:27:00,
2013-02-03 06:32:00,38.1,32.8,29.58,NW,315,4.2,4.2,81,0.00,-RA,SKC,0.45,WeatherDisplay:10.37,2013-02-03 05:32:00,
2013-02-03 06:37:00,37.9,32.6,29.57,NNW,338,5.6,10.4,81,0.00,-RA,SKC,0.45,WeatherDisplay:10.37,2013-02-03 05:37:00,
2013-02-03 06:42:00,37.9,32.6,29.57,NW,315,5.8,5.8,81,0.00,-RA,SKC,0.45,WeatherDisplay:10.37,2013-02-03 05:42:00,
2013-02-03 06:47:00,37.9,32.6,29.57,NNW,338,5.1,5.1,81,0.00,-SN,SKC,0.45,WeatherDisplay:10.37,2013-02-03 05:47:00,
2013-02-03 06:52:00,37.9,32.6,29.58,NNW,338,7.2,11.5,81,0.00,-SN,SKC,0.45,WeatherDisplay:10.37,2013-02-03 05:52:00,
2013-02-03 06:57:00,37.9,32.6,29.58,North,0,9.2,9.2,81,0.00,-SN,SKC,0.45,WeatherDisplay:10.37,2013-02-03 05:57:00,
2013-02-03 07:02:00,37.9,32.3,29.58,WNW,292,4.7,10.5,80,0.00,-SN,SKC,0.00,WeatherDisplay:10.37,2013-02-03 06:02:00,
2013-02-03 07:07:00,37.9,32.3,29.58,North,0,3.8,6.3,80,0.00,-SN,SKC,0.00,WeatherDisplay:10.37,2013-02-03 06:07:00,
2013-02-03 07:12:00,37.9,32.3,29.58,NW,315,8.0,8.1,80,0.00,-SN,SKC,0.00,WeatherDisplay:10.37,2013-02-03 06:12:00,
2013-02-03 07:17:00,37.9,32.3,29.59,NW,315,5.1,5.1,80,0.00,-SN,SKC,0.00,WeatherDisplay:10.37,2013-02-03 06:17:00,
2013-02-03 07:22:00,37.9,32.3,29.59,NW,315,10.1,17.3,80,0.00,-SN,SKC,0.00,WeatherDisplay:10.37,2013-02-03 06:22:00,
2013-02-03 07:27:00,37.9,32.3,29.59,NW,315,6.0,8.3,80,0.00,-SN,SKC,0.00,WeatherDisplay:10.37,2013-02-03 06:27:00,
2013-02-03 07:32:00,37.9,32.3,29.60,NW,315,9.8,10.4,80,0.00,-SN,SKC,0.00,WeatherDisplay:10.37,2013-02-03 06:32:00,
2013-02-03 07:37:00,37.9,32.3,29.60,NW,315,1.3,1.3,80,0.00,-SN,SKC,0.00,WeatherDisplay:10.37,2013-02-03 06:37:00,
2013-02-03 07:42:00,37.9,32.3,29.60,NNW,338,8.3,10.9,80,0.00,-SN,SKC,0.00,WeatherDisplay:10.37,2013-02-03 06:42:00,
2013-02-03 07:47:00,37.8,32.1,29.61,West,270,10.5,10.5,80,0.00,-SN,SKC,0.00,WeatherDisplay:10.37,2013-02-03 06:47:00,
2013-02-03 07:52:00,37.8,32.1,29.61,West,270,5.1,5.1,80,0.00,-SN,SKC,0.00,WeatherDisplay:10.37,2013-02-03 06:52:00,
2013-02-03 07:57:00,37.6,32.3,29.61,West,270,10.5,10.5,81,0.00,-SN,SKC,0.00,WeatherDisplay:10.37,2013-02-03 06:57:00,
2013-02-03 08:02:00,37.4,32.1,29.62,WNW,292,4.5,8.3,81,0.00,-SN,SKC,0.00,WeatherDisplay:10.37,2013-02-03 07:02:00,
2013-02-03 08:07:00,37.2,31.9,29.62,NNE,22,8.3,10.4,81,0.00,-SN,SKC,0.00,WeatherDisplay:10.37,2013-02-03 07:07:00,
2013-02-03 08:12:00,37.2,31.9,29.62,WNW,292,8.5,10.4,81,0.00,-SN,SKC,0.00,WeatherDisplay:10.37,2013-02-03 07:12:00,
2013-02-03 08:17:00,37.2,31.9,29.63,NNW,338,4.7,12.7,81,0.00,-SN,SKC,0.00,WeatherDisplay:10.37,2013-02-03 07:17:00,
2013-02-03 08:22:00,37.2,31.9,29.63,WSW,248,8.8,13.8,81,0.00,-SN,SKC,0.00,WeatherDisplay:10.37,2013-02-03 07:22:00,
2013-02-03 08:27:00,37.0,31.8,29.63,NW,315,5.0,6.9,81,0.00,-SN,SKC,0.00,WeatherDisplay:10.37,2013-02-03 07:27:00,
2013-02-03 08:32:00,36.9,31.9,29.63,West,270,7.3,11.5,82,0.00,-SN,SKC,0.00,WeatherDisplay:10.37,2013-02-03 07:32:00,
2013-02-03 08:37:00,36.7,31.7,29.63,NNW,338,7.3,10.4,82,0.00,-SN,SKC,0.00,WeatherDisplay:10.37,2013-02-03 07:37:00,
2013-02-03 08:42:00,36.7,31.7,29.63,WNW,292,7.8,8.1,82,0.00,-SN,SKC,0.00,WeatherDisplay:10.37,2013-02-03 07:42:00,
2013-02-03 08:47:00,36.9,31.9,29.64,NNW,338,11.0,11.5,82,0.00,-SN,SKC,0.00,WeatherDisplay:10.37,2013-02-03 07:47:00,
2013-02-03 08:52:00,36.5,31.5,29.64,WNW,292,8.7,10.4,82,0.00,-SN,SKC,0.00,WeatherDisplay:10.37,2013-02-03 07:52:00,
2013-02-03 08:57:00,36.3,31.4,29.65,WSW,248,9.2,9.2,82,0.00,-SN,SKC,0.00,WeatherDisplay:10.37,2013-02-03 07:57:00,
2013-02-03 09:02:00,36.3,31.4,29.65,NNW,338,0.0,9.2,82,0.00,-RA,SKC,0.00,WeatherDisplay:10.37,2013-02-03 08:02:00,
2013-02-03 09:07:00,36.3,31.4,29.65,NNW,338,7.6,11.5,82,0.00,-RA,SKC,0.00,WeatherDisplay:10.37,2013-02-03 08:07:00,
2013-02-03 09:12:00,36.3,31.4,29.65,NNW,338,9.2,9.2,82,0.00,-RA,SKC,0.00,WeatherDisplay:10.37,2013-02-03 08:12:00,
2013-02-03 09:17:00,36.1,31.2,29.65,WNW,292,15.0,15.0,82,0.00,-RA,SKC,0.00,WeatherDisplay:10.37,2013-02-03 08:17:00,
2013-02-03 09:22:00,36.0,31.0,29.65,NW,315,5.0,5.4,82,0.00,-RA,SKC,0.00,WeatherDisplay:10.37,2013-02-03 08:22:00,
2013-02-03 09:27:00,35.8,30.8,29.66,WNW,292,15.9,16.1,82,0.00,-RA,SKC,0.00,WeatherDisplay:10.37,2013-02-03 08:27:00,
2013-02-03 09:32:00,35.8,30.8,29.66,NW,315,11.2,11.5,82,0.00,-RA,SKC,0.00,WeatherDisplay:10.37,2013-02-03 08:32:00,
2013-02-03 09:37:00,35.8,31.1,29.66,NW,315,4.1,9.2,83,0.00,-RA,SKC,0.00,WeatherDisplay:10.37,2013-02-03 08:37:00,
2013-02-03 09:42:00,35.8,31.1,29.67,North,0,5.8,5.8,83,0.00,-RA,SKC,0.00,WeatherDisplay:10.37,2013-02-03 08:42:00,
2013-02-03 09:47:00,35.4,30.8,29.67,NW,315,6.7,7.4,83,0.00,-RA,SKC,0.00,WeatherDisplay:10.37,2013-02-03 08:47:00,
2013-02-03 09:52:00,35.4,30.8,29.67,NNW,338,9.8,10.4,83,0.00,-RA,SKC,0.00,WeatherDisplay:10.37,2013-02-03 08:52:00,
2013-02-03 09:57:00,35.4,30.8,29.67,NNE,22,4.9,4.9,83,0.00,-RA,SKC,0.00,WeatherDisplay:10.37,2013-02-03 08:57:00,
2013-02-03 10:02:00,35.4,30.8,29.67,WNW,292,6.0,6.9,83,0.00,-SN,SKC,0.00,WeatherDisplay:10.37,2013-02-03 09:02:00,
2013-02-03 10:07:00,35.4,30.8,29.67,WNW,292,3.3,4.6,83,0.00,-SN,SKC,0.00,WeatherDisplay:10.37,2013-02-03 09:07:00,
2013-02-03 10:12:00,35.8,31.1,29.67,NNW,338,8.2,9.2,83,0.00,-SN,SKC,0.00,WeatherDisplay:10.37,2013-02-03 09:12:00,
2013-02-03 10:17:00,36.0,31.0,29.67,NW,315,2.3,4.6,82,0.00,-SN,SKC,0.00,WeatherDisplay:10.37,2013-02-03 09:17:00,
2013-02-03 10:22:00,36.0,31.0,29.67,NW,315,1.7,2.3,82,0.00,-SN,SKC,0.00,WeatherDisplay:10.37,2013-02-03 09:22:00,
2013-02-03 10:27:00,36.1,30.9,29.68,North,0,8.3,8.3,81,0.00,-SN,SKC,0.00,WeatherDisplay:10.37,2013-02-03 09:27:00,
2013-02-03 10:32:00,36.1,30.9,29.69,NNW,338,5.4,5.8,81,0.00,-SN,SKC,0.00,WeatherDisplay:10.37,2013-02-03 09:32:00,
2013-02-03 10:37:00,36.0,30.7,29.69,West,270,6.5,6.9,81,0.00,-SN,SKC,0.00,WeatherDisplay:10.37,2013-02-03 09:37:00,
2013-02-03 10:42:00,36.0,31.0,29.69,West,270,6.5,6.9,82,0.00,-SN,SKC,0.00,WeatherDisplay:10.37,2013-02-03 09:42:00,
2013-02-03 10:47:00,35.8,31.1,29.69,NNW,338,1.3,3.5,83,0.00,-SN,SKC,0.00,WeatherDisplay:10.37,2013-02-03 09:47:00,
2013-02-03 10:52:00,36.1,31.2,29.70,WNW,292,5.1,5.1,82,0.00,-SN,SKC,0.00,WeatherDisplay:10.37,2013-02-03 09:52:00,
2013-02-03 10:57:00,36.3,31.4,29.71,NW,315,1.9,4.6,82,0.00,-SN,SKC,0.00,WeatherDisplay:10.37,2013-02-03 09:57:00,
2013-02-03 11:02:00,36.1,31.2,29.71,West,270,6.5,6.9,82,0.00,-SN,SKC,0.00,WeatherDisplay:10.37,2013-02-03 10:02:00,
2013-02-03 11:07:00,36.1,31.2,29.71,NW,315,9.8,10.4,82,0.00,-SN,SKC,0.00,WeatherDisplay:10.37,2013-02-03 10:07:00,
2013-02-03 11:12:00,36.0,31.0,29.71,West,270,2.2,10.4,82,0.00,-SN,SKC,0.00,WeatherDisplay:10.37,2013-02-03 10:12:00,
2013-02-03 11:17:00,36.0,31.3,29.72,NW,315,4.9,4.9,83,0.00,-SN,SKC,0.00,WeatherDisplay:10.37,2013-02-03 10:17:00,
2013-02-03 11:22:00,35.4,30.8,29.72,NNW,338,5.6,5.8,83,0.00,-SN,SKC,0.00,WeatherDisplay:10.37,2013-02-03 10:22:00,
2013-02-03 11:27:00,35.4,30.8,29.72,WNW,292,2.3,8.1,83,0.00,-SN,SKC,0.00,WeatherDisplay:10.37,2013-02-03 10:27:00,
2013-02-03 11:32:00,35.2,30.9,29.72,WNW,292,6.5,9.2,84,0.00,-SN,SKC,0.00,WeatherDisplay:10.37,2013-02-03 10:32:00,
2013-02-03 11:37:00,35.2,30.9,29.73,WNW,292,6.3,6.3,84,0.00,-SN,SKC,0.00,WeatherDisplay:10.37,2013-02-03 10:37:00,
2013-02-03 11:42:00,34.9,30.8,29.73,NNW,338,14.1,14.1,85,0.00,-SN,SKC,0.00,WeatherDisplay:10.37,2013-02-03 10:42:00,
2013-02-03 11:47:00,34.9,30.8,29.73,NW,315,6.0,13.8,85,0.00,-SN,SKC,0.00,WeatherDisplay:10.37,2013-02-03 10:47:00,
2013-02-03 11:52:00,34.9,30.8,29.73,NW,315,9.0,10.3,85,0.00,-SN,SKC,0.00,WeatherDisplay:10.37,2013-02-03 10:52:00,
2013-02-03 11:57:00,34.9,30.8,29.72,WNW,292,10.5,10.5,85,0.00,-SN,SKC,0.00,WeatherDisplay:10.37,2013-02-03 10:57:00,
2013-02-03 12:02:00,34.9,30.8,29.73,North,0,5.4,5.8,85,0.00,-SN,SKC,0.00,WeatherDisplay:10.37,2013-02-03 11:02:00,
2013-02-03 12:07:00,34.9,30.8,29.73,West,270,8.1,9.2,85,0.06,-SN,SKC,0.06,WeatherDisplay:10.37,2013-02-03 11:07:00,
2013-02-03 12:12:00,34.9,30.5,29.73,WNW,292,5.2,5.8,84,0.06,-SN,SKC,0.06,WeatherDisplay:10.37,2013-02-03 11:12:00,
2013-02-03 12:17:00,34.9,30.8,29.73,NW,315,7.4,7.4,85,0.06,-SN,SKC,0.06,WeatherDisplay:10.37,2013-02-03 11:17:00,
2013-02-03 12:22:00,34.5,30.5,29.74,West,270,4.3,4.3,85,0.06,-SN,SKC,0.06,WeatherDisplay:10.37,2013-02-03 11:22:00,
2013-02-03 12:27:00,34.3,30.3,29.74,NW,315,5.1,5.1,85,0.06,-SN,SKC,0.06,WeatherDisplay:10.37,2013-02-03 11:27:00,
2013-02-03 12:32:00,34.2,30.1,29.74,NNW,338,4.5,4.6,85,0.06,-SN,SKC,0.06,WeatherDisplay:10.37,2013-02-03 11:32:00,
2013-02-03 12:37:00,34.2,30.1,29.74,NNE,22,7.2,13.8,85,0.06,-SN,SKC,0.06,WeatherDisplay:10.37,2013-02-03 11:37:00,
2013-02-03 12:42:00,34.0,29.9,29.75,NW,315,9.2,9.2,85,0.06,-SN,SKC,0.06,WeatherDisplay:10.37,2013-02-03 11:42:00,
2013-02-03 12:47:00,34.0,29.9,29.75,WNW,292,9.2,9.2,85,0.06,-SN,SKC,0.06,WeatherDisplay:10.37,2013-02-03 11:47:00,
2013-02-03 12:52:00,33.8,29.8,29.75,West,270,4.0,4.0,85,0.06,-SN,SKC,0.06,WeatherDisplay:10.37,2013-02-03 11:52:00,
2013-02-03 12:57:00,33.8,29.8,29.75,North,0,4.5,4.6,85,0.06,-SN,SKC,0.06,WeatherDisplay:10.37,2013-02-03 11:57:00,
2013-02-03 13:02:00,34.0,29.9,29.75,NNW,338,4.9,4.9,85,0.06,-SN,SKC,0.06,WeatherDisplay:10.37,2013-02-03 12:02:00,
2013-02-03 13:07:00,34.0,29.9,29.75,NNW,338,8.0,10.9,85,0.00,-SN,SKC,0.06,WeatherDisplay:10.37,2013-02-03 12:07:00,
2013-02-03 13:12:00,34.0,29.9,29.76,NW,315,2.2,2.3,85,0.00,-SN,SKC,0.06,WeatherDisplay:10.37,2013-02-03 12:12:00,
2013-02-03 13:17:00,34.0,29.9,29.76,WNW,292,4.7,6.0,85,0.00,-SN,SKC,0.06,WeatherDisplay:10.37,2013-02-03 12:17:00,
2013-02-03 13:22:00,34.0,29.9,29.76,NE,45,9.4,9.4,85,0.00,-SN,SKC,0.06,WeatherDisplay:10.37,2013-02-03 12:22:00,
2013-02-03 13:27:00,34.0,29.9,29.77,NNW,338,3.8,12.7,85,0.00,-SN,SKC,0.06,WeatherDisplay:10.37,2013-02-03 12:27:00,
2013-02-03 13:32:00,34.2,30.1,29.77,NW,315,3.1,3.5,85,0.00,OVC,SKC,0.06,WeatherDisplay:10.37,2013-02-03 12:32:00,
2013-02-03 13:37:00,34.2,30.1,29.77,NW,315,7.6,8.1,85,0.00,OVC,SKC,0.06,WeatherDisplay:10.37,2013-02-03 12:37:00,
2013-02-03 13:42:00,34.0,29.9,29.77,NW,315,6.3,6.3,85,0.00,OVC,SKC,0.06,WeatherDisplay:10.37,2013-02-03 12:42:00,
2013-02-03 13:47:00,34.0,29.9,29.77,North,0,6.9,10.4,85,0.00,-SN,SKC,0.06,WeatherDisplay:10.37,2013-02-03 12:47:00,
2013-02-03 13:52:00,33.8,29.8,29.77,NW,315,1.1,1.1,85,0.00,-SN,SKC,0.06,WeatherDisplay:10.37,2013-02-03 12:52:00,
2013-02-03 13:57:00,34.0,29.9,29.77,WNW,292,10.3,10.4,85,0.00,-SN,SKC,0.06,WeatherDisplay:10.37,2013-02-03 12:57:00,
2013-02-03 14:02:00,34.0,29.9,29.78,NW,315,4.7,4.7,85,0.00,-SN,SKC,0.06,WeatherDisplay:10.37,2013-02-03 13:02:00,
2013-02-03 14:07:00,34.2,30.1,29.77,WNW,292,7.2,8.1,85,0.00,-SN,SKC,0.06,WeatherDisplay:10.37,2013-02-03 13:07:00,
2013-02-03 14:12:00,34.2,30.1,29.78,West,270,5.6,5.8,85,0.00,-SN,SKC,0.06,WeatherDisplay:10.37,2013-02-03 13:12:00,
2013-02-03 14:17:00,34.2,30.1,29.78,NW,315,1.1,1.1,85,0.00,-SN,SKC,0.06,WeatherDisplay:10.37,2013-02-03 13:17:00,
2013-02-03 14:22:00,34.3,30.3,29.78,NNW,338,2.9,8.5,85,0.00,-SN,SKC,0.06,WeatherDisplay:10.37,2013-02-03 13:22:00,
2013-02-03 14:27:00,34.7,30.4,29.79,NW,315,5.0,5.8,84,0.00,-SN,SKC,0.06,WeatherDisplay:10.37,2013-02-03 13:27:00,
2013-02-03 14:32:00,34.7,30.1,29.79,WNW,292,4.4,4.6,83,0.00,-SN,SKC,0.06,WeatherDisplay:10.37,2013-02-03 13:32:00,
2013-02-03 14:37:00,34.7,30.1,29.79,NNW,338,10.1,10.4,83,0.00,-SN,SKC,0.06,WeatherDisplay:10.37,2013-02-03 13:37:00,
2013-02-03 14:42:00,34.5,29.9,29.79,NW,315,6.9,10.4,83,0.00,-SN,SKC,0.06,WeatherDisplay:10.37,2013-02-03 13:42:00,
2013-02-03 14:47:00,34.5,29.9,29.80,North,0,4.9,4.9,83,0.00,-SN,SKC,0.06,WeatherDisplay:10.37,2013-02-03 13:47:00,
2013-02-03 14:52:00,34.5,29.9,29.80,NW,315,8.7,9.2,83,0.00,-SN,SKC,0.06,WeatherDisplay:10.37,2013-02-03 13:52:00,
2013-02-03 14:57:00,34.7,30.1,29.80,WNW,292,5.3,6.9,83,0.00,-SN,SKC,0.06,WeatherDisplay:10.37,2013-02-03 13:57:00,
2013-02-03 15:02:00,34.9,29.9,29.80,NW,315,7.9,12.7,82,0.00,-SN,SKC,0.06,WeatherDisplay:10.37,2013-02-03 14:02:00,
2013-02-03 15:07:00,34.9,29.9,29.80,NNE,22,4.9,4.9,82,0.00,-SN,SKC,0.06,WeatherDisplay:10.37,2013-02-03 14:07:00,
2013-02-03 15:12:00,34.7,29.8,29.81,WNW,292,5.6,9.8,82,0.00,-SN,SKC,0.06,WeatherDisplay:10.37,2013-02-03 14:12:00,
2013-02-03 15:17:00,34.7,29.8,29.80,NNW,338,4.9,8.1,82,0.00,-SN,SKC,0.06,WeatherDisplay:10.37,2013-02-03 14:17:00,
2013-02-03 15:22:00,34.7,29.8,29.81,WNW,292,6.7,6.9,82,0.00,-SN,SKC,0.06,WeatherDisplay:10.37,2013-02-03 14:22:00,
2013-02-03 15:27:00,34.9,29.9,29.81,NNW,338,4.9,4.9,82,0.00,-SN,SKC,0.06,WeatherDisplay:10.37,2013-02-03 14:27:00,
2013-02-03 15:32:00,34.7,29.8,29.81,NNW,338,4.4,9.2,82,0.00,-SN,SKC,0.06,WeatherDisplay:10.37,2013-02-03 14:32:00,
2013-02-03 15:37:00,34.9,29.9,29.81,NNW,338,4.4,5.8,82,0.00,-SN,SKC,0.06,WeatherDisplay:10.37,2013-02-03 14:37:00,
2013-02-03 15:42:00,34.9,29.9,29.81,WNW,292,4.7,4.7,82,0.00,-SN,SKC,0.06,WeatherDisplay:10.37,2013-02-03 14:42:00,
2013-02-03 15:47:00,35.2,30.0,29.81,NNW,338,5.1,8.3,81,0.00,-SN,SKC,0.06,WeatherDisplay:10.37,2013-02-03 14:47:00,
2013-02-03 15:52:00,35.2,30.0,29.81,WNW,292,6.1,8.1,81,0.00,-SN,SKC,0.06,WeatherDisplay:10.37,2013-02-03 14:52:00,
2013-02-03 15:57:00,35.2,30.0,29.81,WNW,292,9.2,13.8,81,0.00,-SN,SKC,0.06,WeatherDisplay:10.37,2013-02-03 14:57:00,
2013-02-03 16:02:00,35.2,29.7,29.81,NW,315,7.2,15.0,80,0.00,-SN,SKC,0.06,WeatherDisplay:10.37,2013-02-03 15:02:00,
2013-02-03 16:07:00,35.2,29.7,29.81,NNW,338,2.7,3.5,80,0.00,-SN,SKC,0.06,WeatherDisplay:10.37,2013-02-03 15:07:00,
2013-02-03 16:12:00,35.4,29.9,29.81,North,0,8.1,8.1,80,0.00,-SN,SKC,0.06,WeatherDisplay:10.37,2013-02-03 15:12:00,
2013-02-03 16:17:00,35.4,29.6,29.81,WNW,292,4.7,4.7,79,0.00,BKN,SKC,0.06,WeatherDisplay:10.37,2013-02-03 15:17:00,
2013-02-03 16:22:00,35.4,29.6,29.81,NW,315,12.1,12.1,79,0.00,BKN,SKC,0.06,WeatherDisplay:10.37,2013-02-03 15:22:00,
2013-02-03 16:27:00,35.4,28.9,29.82,North,0,11.6,16.1,77,0.00,BKN,SKC,0.06,WeatherDisplay:10.37,2013-02-03 15:27:00,
2013-02-03 16:32:00,35.8,29.3,29.82,NNW,338,2.6,0.0,77,0.00,BKN,SKC,0.06,WeatherDisplay:10.37,2013-02-03 15:32:00,
2013-02-03 16:37:00,35.8,29.3,29.82,NNE,22,4.0,8.1,77,0.00,BKN,SKC,0.06,WeatherDisplay:10.37,2013-02-03 15:37:00,
2013-02-03 16:42:00,35.6,28.8,29.82,South,180,10.5,10.5,76,0.00,BKN,SKC,0.06,WeatherDisplay:10.37,2013-02-03 15:42:00,
2013-02-03 16:47:00,35.8,29.0,29.82,NW,315,9.4,17.3,76,0.00,BKN,SKC,0.06,WeatherDisplay:10.37,2013-02-03 15:47:00,
2013-02-03 16:52:00,35.8,29.0,29.82,NW,315,7.4,7.4,76,0.00,BKN,SKC,0.06,WeatherDisplay:10.37,2013-02-03 15:52:00,
2013-02-03 16:57:00,35.8,29.0,29.83,North,0,2.5,11.5,76,0.00,BKN,SKC,0.06,WeatherDisplay:10.37,2013-02-03 15:57:00,
2013-02-03 17:02:00,35.8,29.0,29.83,WNW,292,4.0,5.8,76,0.00,CLR,SKC,0.06,WeatherDisplay:10.37,2013-02-03 16:02:00,
2013-02-03 17:07:00,35.8,29.0,29.83,NW,315,9.6,10.4,76,0.00,CLR,SKC,0.06,WeatherDisplay:10.37,2013-02-03 16:07:00,
2013-02-03 17:12:00,35.8,29.0,29.83,NNW,338,6.5,8.1,76,0.00,CLR,SKC,0.06,WeatherDisplay:10.37,2013-02-03 16:12:00,
2013-02-03 17:17:00,35.8,28.6,29.84,West,270,9.8,11.5,75,0.00,CLR,SKC,0.06,WeatherDisplay:10.37,2013-02-03 16:17:00,
2013-02-03 17:22:00,35.8,28.6,29.84,NW,315,4.2,4.6,75,0.00,CLR,SKC,0.06,WeatherDisplay:10.37,2013-02-03 16:22:00,
2013-02-03 17:27:00,35.8,28.6,29.84,NW,315,2.6,12.1,75,0.00,CLR,SKC,0.06,WeatherDisplay:10.37,2013-02-03 16:27:00,
2013-02-03 17:32:00,35.4,28.3,29.85,West,270,4.6,4.6,75,0.00,CLR,SKC,0.06,WeatherDisplay:10.37,2013-02-03 16:32:00,
2013-02-03 17:37:00,35.6,28.5,29.85,WNW,292,8.8,10.4,75,0.00,CLR,SKC,0.06,WeatherDisplay:10.37,2013-02-03 16:37:00,
2013-02-03 17:42:00,35.8,28.3,29.85,SW,225,9.0,10.4,74,0.00,CLR,SKC,0.06,WeatherDisplay:10.37,2013-02-03 16:42:00,
2013-02-03 17:47:00,35.6,28.1,29.86,West,270,4.9,8.1,74,0.00,CLR,SKC,0.06,WeatherDisplay:10.37,2013-02-03 16:47:00,
2013-02-03 17:52:00,35.4,28.0,29.85,WNW,292,2.2,5.8,74,0.00,CLR,SKC,0.06,WeatherDisplay:10.37,2013-02-03 16:52:00,
2013-02-03 17:57:00,35.4,28.0,29.86,NW,315,11.2,11.5,74,0.00,CLR,SKC,0.06,WeatherDisplay:10.37,2013-02-03 16:57:00,
2013-02-03 18:02:00,35.4,28.0,29.86,NW,315,3.1,3.5,74,0.00,CLR,SKC,0.06,WeatherDisplay:10.37,2013-02-03 17:02:00,
2013-02-03 18:07:00,35.4,28.0,29.87,NNW,338,7.3,10.4,74,0.00,CLR,SKC,0.06,WeatherDisplay:10.37,2013-02-03 17:07:00,
2013-02-03 18:12:00,35.4,28.0,29.87,WNW,292,6.9,6.9,74,0.00,CLR,SKC,0.06,WeatherDisplay:10.37,2013-02-03 17:12:00,
2013-02-03 18:17:00,35.4,28.0,29.87,North,0,1.6,5.8,74,0.00,CLR,SKC,0.06,WeatherDisplay:10.37,2013-02-03 17:17:00,
2013-02-03 18:22:00,35.4,28.0,29.87,NNW,338,5.8,5.8,74,0.00,CLR,SKC,0.06,WeatherDisplay:10.37,2013-02-03 17:22:00,
2013-02-03 18:27:00,35.4,28.0,29.88,WNW,292,6.6,9.2,74,0.00,CLR,SKC,0.06,WeatherDisplay:10.37,2013-02-03 17:27:00,
2013-02-03 18:32:00,35.4,27.6,29.88,North,0,5.3,8.1,73,0.00,CLR,SKC,0.06,WeatherDisplay:10.37,2013-02-03 17:32:00,
2013-02-03 18:37:00,35.8,28.0,29.88,NW,315,9.4,17.3,73,0.00,CLR,SKC,0.06,WeatherDisplay:10.37,2013-02-03 17:37:00,
2013-02-03 18:42:00,35.8,27.6,29.88,NNW,338,5.6,5.8,72,0.00,CLR,SKC,0.06,WeatherDisplay:10.37,2013-02-03 17:42:00,
2013-02-03 18:47:00,35.8,27.6,29.88,North,0,5.6,5.8,72,0.00,CLR,SKC,0.06,WeatherDisplay:10.37,2013-02-03 17:47:00,
2013-02-03 18:52:00,35.8,27.3,29.88,North,0,5.2,8.1,71,0.00,CLR,SKC,0.06,WeatherDisplay:10.37,2013-02-03 17:52:00,
2013-02-03 18:57:00,36.0,27.5,29.89,NE,45,7.4,7.4,71,0.00,CLR,SKC,0.06,WeatherDisplay:10.37,2013-02-03 17:57:00,
2013-02-03 19:02:00,36.0,27.1,29.89,NNW,338,8.3,8.3,70,0.00,CLR,SKC,0.06,WeatherDisplay:10.37,2013-02-03 18:02:00,
2013-02-03 19:07:00,36.1,26.9,29.89,NW,315,7.7,10.4,69,0.00,CLR,SKC,0.06,WeatherDisplay:10.37,2013-02-03 18:07:00,
2013-02-03 19:12:00,36.1,26.9,29.89,WNW,292,9.0,18.4,69,0.00,CLR,SKC,0.06,WeatherDisplay:10.37,2013-02-03 18:12:00,
2013-02-03 19:17:00,36.1,26.9,29.89,West,270,10.6,10.6,69,0.00,CLR,SKC,0.06,WeatherDisplay:10.37,2013-02-03 18:17:00,
2013-02-03 19:22:00,36.1,26.6,29.89,NW,315,10.0,15.0,68,0.00,CLR,SKC,0.06,WeatherDisplay:10.37,2013-02-03 18:22:00,
2013-02-03 19:27:00,36.1,26.6,29.89,NNW,338,6.1,8.3,68,0.00,CLR,SKC,0.06,WeatherDisplay:10.37,2013-02-03 18:27:00,
2013-02-03 19:32:00,36.1,26.6,29.90,NW,315,6.9,11.5,68,0.00,CLR,SKC,0.06,WeatherDisplay:10.37,2013-02-03 18:32:00,
2013-02-03 19:37:00,36.1,26.6,29.90,NW,315,13.6,15.0,68,0.00,CLR,SKC,0.06,WeatherDisplay:10.37,2013-02-03 18:37:00,
2013-02-03 19:42:00,36.1,26.6,29.90,NW,315,15.0,15.0,68,0.00,CLR,SKC,0.06,WeatherDisplay:10.37,2013-02-03 18:42:00,
2013-02-03 19:47:00,35.8,26.6,29.90,NW,315,6.8,8.1,69,0.00,CLR,SKC,0.06,WeatherDisplay:10.37,2013-02-03 18:47:00,
2013-02-03 19:52:00,35.4,26.3,29.90,NW,315,8.5,11.5,69,0.00,CLR,SKC,0.06,WeatherDisplay:10.37,2013-02-03 18:52:00,
2013-02-03 19:57:00,35.4,26.3,29.90,NW,315,5.2,5.4,69,0.00,CLR,SKC,0.06,WeatherDisplay:10.37,2013-02-03 18:57:00,
2013-02-03 20:02:00,35.4,26.3,29.91,NNW,338,19.4,19.6,69,0.00,CLR,SKC,0.06,WeatherDisplay:10.37,2013-02-03 19:02:00,
2013-02-03 20:07:00,35.4,25.9,29.91,WNW,292,10.5,11.5,68,0.00,CLR,SKC,0.06,WeatherDisplay:10.37,2013-02-03 19:07:00,
2013-02-03 20:12:00,35.4,25.9,29.91,NW,315,7.8,11.5,68,0.00,CLR,SKC,0.06,WeatherDisplay:10.37,2013-02-03 19:12:00,
2013-02-03 20:17:00,35.4,25.9,29.91,NNE,22,6.3,9.2,68,0.00,CLR,SKC,0.06,WeatherDisplay:10.37,2013-02-03 19:17:00,
2013-02-03 20:22:00,35.2,26.1,29.91,NW,315,7.0,12.7,69,0.00,CLR,SKC,0.06,WeatherDisplay:10.37,2013-02-03 19:22:00,
2013-02-03 20:27:00,34.9,26.1,29.91,NNE,22,2.9,3.5,70,0.00,CLR,SKC,0.06,WeatherDisplay:10.37,2013-02-03 19:27:00,
2013-02-03 20:32:00,34.9,26.1,29.91,NNE,22,2.9,3.5,70,0.00,CLR,SKC,0.06,WeatherDisplay:10.37,2013-02-03 19:32:00,
2013-02-03 20:37:00,34.0,26.2,29.91,WNW,292,12.3,12.7,73,0.00,CLR,SKC,0.06,WeatherDisplay:10.37,2013-02-03 19:37:00,
2013-02-03 20:42:00,33.6,26.5,29.92,WNW,292,8.1,10.4,75,0.00,CLR,SKC,0.06,WeatherDisplay:10.37,2013-02-03 19:42:00,
2013-02-03 20:47:00,33.4,26.7,29.92,NNW,338,7.2,8.1,76,0.00,CLR,SKC,0.06,WeatherDisplay:10.37,2013-02-03 19:47:00,
2013-02-03 20:52:00,33.1,26.7,29.92,WSW,248,4.8,6.9,77,0.00,CLR,SKC,0.06,WeatherDisplay:10.37,2013-02-03 19:52:00,
2013-02-03 20:57:00,32.9,26.5,29.92,WNW,292,11.4,11.5,77,0.00,CLR,SKC,0.06,WeatherDisplay:10.37,2013-02-03 19:57:00,
2013-02-03 21:02:00,32.7,26.3,29.92,WNW,292,6.7,6.9,77,0.00,CLR,SKC,0.06,WeatherDisplay:10.37,2013-02-03 20:02:00,
2013-02-03 21:07:00,32.7,26.3,29.91,WNW,292,2.9,6.3,77,0.00,CLR,SKC,0.06,WeatherDisplay:10.37,2013-02-03 20:07:00,
2013-02-03 21:12:00,32.7,26.6,29.91,WNW,292,4.7,4.7,78,0.00,CLR,SKC,0.06,WeatherDisplay:10.37,2013-02-03 20:12:00,
2013-02-03 21:17:00,32.7,26.6,29.92,WNW,292,10.1,10.4,78,0.00,CLR,SKC,0.06,WeatherDisplay:10.37,2013-02-03 20:17:00,
2013-02-03 21:22:00,32.7,26.6,29.92,WNW,292,9.4,9.4,78,0.00,CLR,SKC,0.06,WeatherDisplay:10.37,2013-02-03 20:22:00,
2013-02-03 21:27:00,32.7,26.6,29.92,WNW,292,3.1,3.5,78,0.00,CLR,SKC,0.06,WeatherDisplay:10.37,2013-02-03 20:27:00,
2013-02-03 21:32:00,32.7,26.6,29.92,North,0,1.6,3.5,78,0.00,CLR,SKC,0.06,WeatherDisplay:10.37,2013-02-03 20:32:00,
2013-02-03 21:37:00,32.7,26.6,29.92,NW,315,10.1,10.4,78,0.00,CLR,SKC,0.06,WeatherDisplay:10.37,2013-02-03 20:37:00,
2013-02-03 21:42:00,32.5,26.4,29.92,NW,315,1.1,1.1,78,0.00,CLR,SKC,0.06,WeatherDisplay:10.37,2013-02-03 20:42:00,
2013-02-03 21:47:00,32.4,26.3,29.92,North,0,4.2,10.4,78,0.00,CLR,SKC,0.06,WeatherDisplay:10.37,2013-02-03 20:47:00,
2013-02-03 21:52:00,32.5,26.4,29.92,NW,315,4.9,4.9,78,0.00,CLR,SKC,0.06,WeatherDisplay:10.37,2013-02-03 20:52:00,
2013-02-03 21:57:00,32.5,26.1,29.92,West,270,8.2,15.0,77,0.00,CLR,SKC,0.06,WeatherDisplay:10.37,2013-02-03 20:57:00,
2013-02-03 22:03:00,32.7,26.0,29.92,WNW,292,14.1,14.1,76,0.00,CLR,SKC,0.06,WeatherDisplay:10.37,2013-02-03 21:03:00,
2013-02-03 22:08:00,32.7,26.0,29.92,WNW,292,9.9,12.7,76,0.00,CLR,SKC,0.06,WeatherDisplay:10.37,2013-02-03 21:08:00,
2013-02-03 22:13:00,32.9,25.8,29.93,WNW,292,15.0,15.0,75,0.00,CLR,SKC,0.06,WeatherDisplay:10.37,2013-02-03 21:13:00,
2013-02-03 22:18:00,33.1,25.7,29.92,West,270,8.5,8.5,74,0.00,CLR,SKC,0.06,WeatherDisplay:10.37,2013-02-03 21:18:00,
2013-02-03 22:23:00,32.7,26.0,29.93,WNW,292,17.4,17.4,76,0.00,CLR,SKC,0.06,WeatherDisplay:10.37,2013-02-03 21:23:00,
2013-02-03 22:28:00,32.7,26.0,29.93,NNW,338,4.9,6.5,76,0.00,CLR,SKC,0.06,WeatherDisplay:10.37,2013-02-03 21:28:00,
2013-02-03 22:33:00,32.7,26.0,29.93,WNW,292,11.7,11.7,76,0.00,CLR,SKC,0.06,WeatherDisplay:10.37,2013-02-03 21:33:00,
2013-02-03 22:38:00,32.7,25.7,29.93,WNW,292,9.8,9.8,75,0.00,CLR,SKC,0.06,WeatherDisplay:10.37,2013-02-03 21:38:00,
2013-02-03 22:43:00,33.1,25.7,29.93,NNW,338,4.5,4.6,74,0.00,CLR,SKC,0.06,WeatherDisplay:10.37,2013-02-03 21:43:00,
2013-02-03 22:48:00,33.1,25.4,29.93,WSW,248,5.1,5.8,73,0.00,CLR,SKC,0.06,WeatherDisplay:10.37,2013-02-03 21:48:00,
2013-02-03 22:53:00,32.9,25.5,29.93,WNW,292,9.0,13.2,74,0.00,CLR,SKC,0.06,WeatherDisplay:10.37,2013-02-03 21:53:00,
2013-02-03 22:58:00,32.9,25.2,29.93,NNW,338,8.3,8.3,73,0.00,CLR,SKC,0.06,WeatherDisplay:10.37,2013-02-03 21:58:00,
2013-02-03 23:03:00,32.7,25.3,29.93,WNW,292,1.2,6.7,74,0.00,CLR,SKC,0.06,WeatherDisplay:10.37,2013-02-03 22:03:00,
2013-02-03 23:08:00,32.5,25.2,29.93,NW,315,5.8,5.8,74,0.00,CLR,SKC,0.06,WeatherDisplay:10.37,2013-02-03 22:08:00,
2013-02-03 23:13:00,32.5,25.2,29.93,NNW,338,6.8,10.4,74,0.00,CLR,SKC,0.06,WeatherDisplay:10.37,2013-02-03 22:13:00,
2013-02-03 23:18:00,32.5,25.2,29.93,WNW,292,4.4,5.8,74,0.00,CLR,SKC,0.06,WeatherDisplay:10.37,2013-02-03 22:18:00,
2013-02-03 23:23:00,32.5,25.2,29.93,WNW,292,2.1,2.5,74,0.00,CLR,SKC,0.06,WeatherDisplay:10.37,2013-02-03 22:23:00,
2013-02-03 23:28:00,32.5,25.2,29.93,WNW,292,4.5,4.6,74,0.00,CLR,SKC,0.06,WeatherDisplay:10.37,2013-02-03 22:28:00,
2013-02-03 23:33:00,32.4,25.3,29.93,NW,315,5.1,5.1,75,0.00,CLR,SKC,0.06,WeatherDisplay:10.37,2013-02-03 22:33:00,
2013-02-03 23:38:00,32.2,25.1,29.93,NNW,338,2.9,6.9,75,0.00,CLR,SKC,0.06,WeatherDisplay:10.37,2013-02-03 22:38:00,
2013-02-03 23:43:00,32.2,25.1,29.93,WNW,292,3.4,3.5,75,0.00,CLR,SKC,0.06,WeatherDisplay:10.37,2013-02-03 22:43:00,
2013-02-03 23:48:00,32.2,24.8,29.94,WNW,292,3.3,4.7,74,0.00,CLR,SKC,0.06,WeatherDisplay:10.37,2013-02-03 22:48:00,
2013-02-03 23:53:00,32.2,25.1,29.94,West,270,4.6,6.5,75,0.00,CLR,SKC,0.06,WeatherDisplay:10.37,2013-02-03 22:53:00,
2013-02-03 23:58:00,32.4,25.3,29.94,WNW,292,6.2,6.9,75,0.00,CLR,SKC,0.06,WeatherDisplay:10.37,2013-02-03 22:58:00,